createdAt,value
2023-04-23T00:01:30.591Z,103.99
2023-04-23T00:11:45.626Z,104.13
2023-04-23T00:21:57.762Z,103.97
2023-04-23T00:32:11.784Z,103.41
2023-04-23T00:42:25.580Z,103.54
2023-04-23T00:52:59.813Z,103.18
2023-04-23T01:03:19.989Z,103.57
2023-04-23T01:13:26.635Z,103.72
2023-04-23T01:23:31.954Z,103.54
2023-04-23T01:33:36.094Z,103.51
2023-04-23T01:43:43.156Z,103.60
2023-04-23T01:53:46.619Z,103.75
2023-04-23T02:03:51.755Z,103.55
2023-04-23T02:13:55.168Z,103.58
2023-04-23T02:23:59.586Z,103.25
2023-04-23T02:34:02.710Z,103.68
2023-04-23T02:44:07.307Z,103.54
2023-04-23T02:54:11.231Z,103.71
2023-04-23T03:04:18.812Z,103.15
2023-04-23T03:14:21.756Z,102.76
2023-04-23T03:24:27.484Z,102.59
2023-04-23T03:34:30.551Z,102.76
2023-04-23T03:44:35.113Z,102.73
2023-04-23T03:54:39.988Z,102.94
2023-04-23T04:04:49.568Z,102.88
2023-04-23T04:14:52.786Z,103.22
2023-04-23T04:24:57.506Z,103.63
2023-04-23T04:35:00.541Z,103.65
2023-04-23T04:45:09.024Z,103.86
2023-04-23T04:55:12.042Z,103.94
2023-04-23T05:05:16.769Z,103.84
2023-04-23T05:15:41.739Z,103.57
2023-04-23T05:25:45.988Z,104.27
2023-04-23T05:35:48.718Z,103.78
2023-04-23T05:45:52.983Z,103.84
2023-04-23T05:55:55.897Z,103.47
2023-04-23T06:06:00.123Z,103.00
2023-04-23T06:16:03.029Z,103.12
2023-04-23T06:26:07.273Z,101.65
2023-04-23T06:36:10.967Z,102.07
2023-04-23T06:46:15.090Z,100.70
2023-04-23T06:56:17.695Z,100.00
2023-04-23T07:06:21.688Z,99.68
2023-04-23T07:16:25.644Z,99.61
2023-04-23T07:26:29.671Z,98.79
2023-04-23T07:36:32.353Z,98.22
2023-04-23T07:46:36.525Z,97.26
2023-04-23T07:56:39.267Z,93.66
2023-04-23T08:06:44.018Z,88.37
2023-04-23T08:16:46.733Z,86.62
2023-04-23T08:26:50.711Z,86.05
2023-04-23T08:36:53.374Z,81.82
2023-04-23T08:46:59.121Z,79.76
2023-04-23T08:57:02.852Z,78.63
2023-04-23T09:07:11.137Z,76.68
2023-04-23T09:17:13.870Z,75.60
2023-04-23T09:27:25.769Z,74.58
2023-04-23T09:37:28.491Z,73.33
2023-04-23T09:47:35.304Z,73.16
2023-04-23T09:57:38.575Z,75.04
2023-04-23T10:07:43.021Z,75.22
2023-04-23T10:17:47.684Z,69.29
2023-04-23T10:27:54.798Z,69.59
2023-04-23T10:38:00.144Z,67.17
2023-04-23T10:48:10.359Z,65.40
2023-04-23T10:58:16.196Z,64.91
2023-04-23T11:08:24.647Z,60.41
2023-04-23T11:18:28.868Z,58.33
2023-04-23T11:28:44.887Z,60.88
2023-04-23T11:38:48.101Z,50.18
2023-04-23T11:48:52.436Z,40.04
2023-04-23T11:59:01.159Z,49.28
2023-04-23T12:09:05.288Z,49.47
2023-04-23T12:19:14.027Z,38.20
2023-04-23T12:29:19.705Z,38.30
2023-04-23T12:39:29.517Z,24.75
2023-04-23T12:49:38.366Z,24.36
2023-04-23T12:59:41.744Z,23.89
2023-04-23T13:09:46.252Z,29.28
2023-04-23T13:19:49.358Z,32.76
2023-04-23T13:29:53.708Z,33.67
2023-04-23T13:39:56.475Z,35.81
2023-04-23T13:50:03.124Z,35.46
2023-04-23T14:00:13.144Z,34.71
2023-04-23T14:10:18.027Z,38.52
2023-04-23T14:20:21.334Z,40.52
2023-04-23T14:30:32.905Z,39.46
2023-04-23T14:40:35.857Z,39.20
2023-04-23T14:50:40.354Z,36.02
2023-04-23T15:00:43.526Z,36.24
2023-04-23T15:10:48.325Z,34.75
2023-04-23T15:20:51.282Z,36.19
2023-04-23T15:30:58.070Z,37.33
2023-04-23T15:41:01.631Z,38.25
2023-04-23T15:51:06.820Z,38.46
2023-04-23T16:01:10.277Z,39.04
2023-04-23T16:11:14.996Z,40.04
2023-04-23T16:21:18.031Z,42.25
2023-04-23T16:31:22.685Z,42.60
2023-04-23T16:41:25.926Z,43.99
2023-04-23T16:51:30.618Z,49.21
2023-04-23T17:01:33.614Z,49.92
2023-04-23T17:11:38.362Z,49.47
2023-04-23T17:21:41.470Z,50.76
2023-04-23T17:31:46.208Z,52.37
2023-04-23T17:41:50.670Z,52.28
2023-04-23T17:51:55.319Z,53.87
2023-04-23T18:01:58.537Z,54.42
2023-04-23T18:12:03.999Z,58.11
2023-04-23T18:22:08.258Z,61.53
2023-04-23T18:32:20.961Z,63.99
2023-04-23T18:42:30.496Z,66.22
2023-04-23T18:52:34.865Z,68.04
2023-04-23T19:02:40.376Z,69.96
2023-04-23T19:12:44.962Z,71.31
2023-04-23T19:22:47.615Z,83.89
2023-04-23T19:32:51.727Z,95.91
2023-04-23T19:42:55.743Z,98.30
2023-04-23T19:52:59.948Z,98.13
2023-04-23T20:03:02.784Z,98.21
2023-04-23T20:13:07.454Z,99.22
2023-04-23T20:23:10.638Z,99.17
2023-04-23T20:33:15.916Z,99.93
2023-04-23T20:43:18.662Z,100.77
2023-04-23T20:53:22.832Z,101.54
2023-04-23T21:14:32.004Z,101.73
2023-04-23T21:24:46.608Z,101.75
2023-04-23T21:34:59.082Z,101.71
2023-04-23T21:45:03.631Z,101.60
2023-04-23T21:55:11.479Z,101.79
2023-04-23T22:05:26.041Z,101.86
2023-04-23T22:16:20.707Z,102.70
2023-04-23T22:26:41.788Z,102.99
2023-04-23T22:37:08.504Z,103.29
2023-04-23T22:47:28.644Z,103.12
2023-04-23T22:57:39.581Z,102.55
2023-04-23T23:07:54.184Z,102.36
2023-04-23T23:18:00.238Z,102.61
2023-04-23T23:28:11.735Z,102.07
2023-04-23T23:38:21.153Z,102.06
2023-04-23T23:48:25.477Z,98.96
2023-04-23T23:58:29.619Z,98.93
